Search for airport 
image banner adimage banner adimage banner ad
image banner ad

PA51 - Bowtie

Located in Biglerville, United States

ICAO - PA51, IATA -

Data provided by Airmate  

General information

Coordinates: N39°54'30" W77°12'19"
Elevation is 560 feet MSL.
Magnetic variation is -10° East
View others Airports in Pennsylvania

Operational data

Special qualification required
Current time UTC:
Current local time:
Weather at : KTHV - York ( 28 km )
METAR: KTHV 091553Z AUTO 00000KT 9SM -RA FEW040 BKN060 OVC085 09/05 A3008 RMK AO2 RAB02 SLP192 P0002 T00940050
View NOTAMs / SUP AIP / TFR affecting this airport [VIEW]
Communications frequencies: [VIEW]

Runways:

RWY identifierQFULength (ft)Width (ft)SurfaceLDA (ft)
052100100GRASS
232100100GRASS

Airport contact information

Address: Biglerville United States

Satellite view of PA51